createdAt,value
2019-02-09T00:00:31.936Z,3.50
2019-02-09T00:03:33.877Z,3.55
2019-02-09T00:06:35.953Z,3.64
2019-02-09T00:09:37.834Z,3.71
2019-02-09T00:12:39.772Z,3.78
2019-02-09T00:15:41.628Z,3.81
2019-02-09T00:18:43.610Z,3.82
2019-02-09T00:21:45.486Z,3.82
2019-02-09T00:24:47.461Z,3.85
2019-02-09T00:27:49.340Z,3.92
2019-02-09T00:30:51.346Z,3.94
2019-02-09T00:33:53.242Z,3.91
2019-02-09T00:36:55.140Z,3.97
2019-02-09T00:39:57.023Z,3.89
2019-02-09T00:42:59.030Z,3.81
2019-02-09T00:46:01.380Z,3.78
2019-02-09T00:49:03.354Z,3.74
2019-02-09T00:52:06.421Z,3.72
2019-02-09T00:55:11.440Z,3.65
2019-02-09T00:58:13.342Z,3.73
2019-02-09T01:01:15.327Z,3.85
2019-02-09T01:04:17.266Z,3.96
2019-02-09T01:07:19.274Z,4.05
2019-02-09T01:10:21.413Z,4.10
2019-02-09T01:13:23.329Z,4.13
2019-02-09T01:16:26.313Z,4.12
2019-02-09T01:19:28.253Z,4.11
2019-02-09T01:22:30.305Z,4.11
2019-02-09T01:25:32.159Z,4.16
2019-02-09T01:28:34.294Z,4.22
2019-02-09T01:31:36.292Z,4.24
2019-02-09T01:34:38.238Z,4.25
2019-02-09T01:37:40.214Z,4.21
2019-02-09T01:40:42.148Z,4.22
2019-02-09T01:43:44.137Z,4.21
2019-02-09T01:46:46.585Z,4.20
2019-02-09T01:49:48.507Z,4.23
2019-02-09T01:52:50.369Z,4.27
2019-02-09T01:55:52.270Z,4.22
2019-02-09T01:58:54.210Z,4.20
2019-02-09T02:01:56.161Z,4.26
2019-02-09T02:04:58.157Z,4.28
2019-02-09T02:08:00.197Z,4.28
2019-02-09T02:11:02.294Z,4.27
2019-02-09T02:14:04.439Z,4.27
2019-02-09T02:17:06.682Z,4.31
2019-02-09T02:20:18.189Z,4.29
2019-02-09T02:23:20.140Z,4.29
2019-02-09T02:26:22.119Z,4.24
2019-02-09T02:29:24.024Z,4.18
2019-02-09T02:32:26.073Z,4.16
2019-02-09T02:35:28.029Z,4.07
2019-02-09T02:38:29.974Z,3.96
2019-02-09T02:41:31.916Z,3.80
2019-02-09T02:44:33.906Z,3.67
2019-02-09T02:47:37.644Z,3.50
2019-02-09T02:50:39.599Z,3.41
2019-02-09T02:53:41.634Z,3.33
2019-02-09T02:56:43.556Z,3.32
2019-02-09T02:59:45.480Z,3.43
2019-02-09T03:02:47.537Z,3.53
2019-02-09T03:05:49.435Z,3.42
2019-02-09T03:08:51.450Z,3.25
2019-02-09T03:11:53.356Z,3.12
2019-02-09T03:14:55.375Z,3.04
2019-02-09T03:17:57.765Z,3.05
2019-02-09T03:20:59.683Z,3.16
2019-02-09T03:24:01.579Z,3.28
2019-02-09T03:27:03.483Z,3.31
2019-02-09T03:30:08.966Z,3.28
2019-02-09T03:33:10.918Z,3.13
2019-02-09T03:36:12.752Z,2.96
2019-02-09T03:39:14.743Z,2.95
2019-02-09T03:42:16.666Z,2.94
2019-02-09T03:45:21.410Z,2.93
2019-02-09T03:48:24.766Z,3.05
2019-02-09T03:51:26.689Z,3.28
2019-02-09T03:54:28.546Z,3.48
2019-02-09T03:57:30.477Z,3.65
2019-02-09T04:00:32.647Z,3.75
2019-02-09T04:03:34.670Z,3.80
2019-02-09T04:06:36.615Z,3.83
2019-02-09T04:09:38.595Z,3.69
2019-02-09T04:12:40.701Z,3.55
2019-02-09T04:15:42.861Z,3.21
2019-02-09T04:18:44.779Z,2.95
2019-02-09T04:21:46.700Z,2.72
2019-02-09T04:24:48.702Z,2.71
2019-02-09T04:27:50.815Z,2.66
2019-02-09T04:30:52.771Z,2.64
2019-02-09T04:33:54.742Z,2.67
2019-02-09T04:36:56.658Z,2.91
2019-02-09T04:39:58.551Z,3.02
2019-02-09T04:43:01.152Z,3.07
2019-02-09T04:46:03.226Z,3.04
2019-02-09T04:49:05.137Z,2.93
2019-02-09T04:52:07.638Z,2.78
2019-02-09T04:55:15.271Z,2.76
2019-02-09T04:58:17.222Z,2.71
2019-02-09T05:01:19.211Z,2.67
2019-02-09T05:04:21.207Z,2.66
2019-02-09T05:07:23.131Z,2.66
2019-02-09T05:10:25.594Z,2.61
2019-02-09T05:13:27.586Z,2.76
2019-02-09T05:16:29.560Z,3.08
2019-02-09T05:19:31.464Z,3.31
2019-02-09T05:22:33.415Z,3.54
2019-02-09T05:25:35.275Z,3.71
2019-02-09T05:28:37.198Z,3.77
2019-02-09T05:31:39.157Z,3.78
2019-02-09T05:34:41.125Z,3.80
2019-02-09T05:37:43.080Z,3.90
2019-02-09T05:40:45.167Z,4.00
2019-02-09T05:43:47.053Z,4.04
2019-02-09T05:46:48.959Z,4.03
2019-02-09T05:49:50.914Z,3.68
2019-02-09T05:52:52.830Z,3.49
2019-02-09T05:55:54.824Z,3.51
2019-02-09T05:58:56.861Z,3.75
2019-02-09T06:01:58.820Z,4.02
2019-02-09T06:05:00.724Z,4.17
2019-02-09T06:08:03.585Z,4.23
2019-02-09T06:11:05.647Z,4.26
2019-02-09T06:14:07.558Z,4.28
2019-02-09T06:17:09.513Z,4.29
2019-02-09T06:20:14.848Z,4.37
2019-02-09T06:23:16.787Z,4.50
2019-02-09T06:26:18.753Z,4.62
2019-02-09T06:29:20.681Z,4.79
2019-02-09T06:32:22.534Z,4.90
2019-02-09T06:35:24.911Z,4.93
2019-02-09T06:38:26.873Z,4.91
2019-02-09T06:41:29.039Z,4.87
2019-02-09T06:44:30.894Z,4.92
2019-02-09T06:47:32.773Z,4.97
2019-02-09T06:50:34.696Z,5.02
2019-02-09T06:53:36.604Z,4.97
2019-02-09T06:56:38.502Z,4.98
2019-02-09T06:59:40.472Z,4.96
2019-02-09T07:02:42.333Z,5.08
2019-02-09T07:05:44.356Z,5.21
2019-02-09T07:08:46.304Z,5.33
2019-02-09T07:11:48.421Z,5.49
2019-02-09T07:14:50.350Z,5.77
2019-02-09T07:17:52.243Z,6.01
2019-02-09T07:20:54.184Z,6.43
2019-02-09T07:23:56.068Z,6.89
2019-02-09T07:26:58.042Z,7.06
2019-02-09T07:29:59.961Z,7.16
2019-02-09T07:33:02.590Z,7.38
2019-02-09T07:36:04.803Z,8.33
2019-02-09T07:39:07.895Z,9.03
2019-02-09T07:42:09.823Z,8.55
2019-02-09T07:45:18.271Z,7.93
2019-02-09T07:48:20.216Z,7.50
2019-02-09T07:51:22.179Z,7.24
2019-02-09T07:54:24.104Z,7.08
2019-02-09T07:57:26.059Z,6.83
2019-02-09T08:00:30.651Z,6.75
2019-02-09T08:03:32.606Z,6.69
2019-02-09T08:06:34.510Z,6.51
2019-02-09T08:09:36.642Z,6.43
2019-02-09T08:12:38.693Z,6.42
2019-02-09T08:15:40.639Z,6.43
2019-02-09T08:18:42.544Z,6.48
2019-02-09T08:21:44.592Z,6.48
2019-02-09T08:24:46.520Z,6.38
2019-02-09T08:27:49.208Z,6.41
2019-02-09T08:30:51.302Z,6.37
2019-02-09T08:33:53.269Z,6.34
2019-02-09T08:36:55.156Z,6.51
2019-02-09T08:39:58.144Z,6.60
2019-02-09T08:43:00.154Z,6.69
2019-02-09T08:46:02.197Z,6.70
2019-02-09T08:49:05.533Z,6.65
2019-02-09T08:52:07.571Z,6.73
2019-02-09T08:55:09.458Z,6.66
2019-02-09T08:58:11.411Z,6.62
2019-02-09T09:01:13.471Z,6.66
2019-02-09T09:04:15.438Z,6.70
2019-02-09T09:07:17.341Z,6.72
2019-02-09T09:10:28.028Z,6.99
2019-02-09T09:13:30.008Z,6.98
2019-02-09T09:16:31.953Z,6.75
2019-02-09T09:19:33.875Z,6.49
2019-02-09T09:22:35.787Z,6.47
2019-02-09T09:25:37.649Z,6.43
2019-02-09T09:28:39.605Z,6.43
2019-02-09T09:31:41.494Z,6.49
2019-02-09T09:34:43.378Z,6.41
2019-02-09T09:37:45.256Z,6.35
2019-02-09T09:40:47.260Z,6.47
2019-02-09T09:43:49.172Z,6.46
2019-02-09T09:46:51.177Z,6.48
2019-02-09T09:49:53.149Z,6.50
2019-02-09T09:52:55.042Z,6.52
2019-02-09T09:55:56.977Z,6.63
2019-02-09T09:58:58.937Z,6.70
2019-02-09T10:02:02.175Z,6.93
2019-02-09T10:05:06.954Z,7.07
2019-02-09T10:08:08.955Z,7.11
2019-02-09T10:11:10.940Z,7.12
2019-02-09T10:14:12.940Z,7.09
2019-02-09T10:17:15.230Z,7.08
2019-02-09T10:20:19.118Z,6.98
2019-02-09T10:23:21.043Z,6.95
2019-02-09T10:26:22.947Z,7.03
2019-02-09T10:29:24.868Z,7.31
2019-02-09T10:32:26.818Z,7.60
2019-02-09T10:35:28.976Z,7.77
2019-02-09T10:38:30.902Z,7.84
2019-02-09T10:41:32.860Z,7.68
2019-02-09T10:44:34.820Z,7.63
2019-02-09T10:47:37.435Z,7.75
2019-02-09T10:50:45.656Z,7.81
2019-02-09T10:53:47.609Z,7.93
2019-02-09T10:56:49.535Z,8.12
2019-02-09T10:59:51.516Z,8.47
2019-02-09T11:02:53.441Z,8.83
2019-02-09T11:05:55.486Z,9.30
2019-02-09T11:08:57.376Z,9.47
2019-02-09T11:11:59.444Z,9.53
2019-02-09T11:15:01.472Z,9.35
2019-02-09T11:18:05.054Z,9.08
2019-02-09T11:21:06.954Z,8.87
2019-02-09T11:24:08.872Z,8.97
2019-02-09T11:27:11.307Z,8.99
2019-02-09T11:30:22.582Z,8.87
2019-02-09T11:33:24.677Z,8.67
2019-02-09T11:36:26.565Z,8.62
2019-02-09T11:39:28.463Z,8.54
2019-02-09T11:42:30.426Z,8.49
2019-02-09T11:45:35.171Z,8.57
2019-02-09T11:48:37.704Z,8.52
2019-02-09T11:51:39.724Z,8.33
2019-02-09T11:54:41.655Z,8.29
2019-02-09T11:57:43.633Z,8.30
2019-02-09T12:00:48.717Z,8.52
2019-02-09T12:03:50.623Z,8.63
2019-02-09T12:06:52.575Z,8.64
2019-02-09T12:09:54.466Z,8.62
2019-02-09T12:12:56.616Z,8.64
2019-02-09T12:15:58.721Z,8.63
2019-02-09T12:19:00.680Z,8.67
2019-02-09T12:22:03.207Z,8.67
2019-02-09T12:25:08.771Z,8.70
2019-02-09T12:28:12.409Z,8.74
2019-02-09T12:31:14.348Z,8.72
2019-02-09T12:34:16.278Z,8.78
2019-02-09T12:37:18.193Z,8.85
2019-02-09T12:40:26.189Z,8.89
2019-02-09T12:43:28.349Z,8.92
2019-02-09T12:46:30.445Z,8.95
2019-02-09T12:49:33.033Z,9.06
2019-02-09T12:52:34.952Z,9.14
2019-02-09T12:55:36.825Z,9.22
2019-02-09T12:58:38.745Z,9.30
2019-02-09T13:01:40.631Z,9.24
2019-02-09T13:04:42.555Z,9.24
2019-02-09T13:07:44.656Z,9.22
2019-02-09T13:10:46.590Z,9.28
2019-02-09T13:13:48.553Z,9.28
2019-02-09T13:16:50.637Z,9.33
2019-02-09T13:19:52.592Z,9.47
2019-02-09T13:22:55.217Z,9.60
2019-02-09T13:25:57.143Z,9.81
2019-02-09T13:28:59.088Z,10.06
2019-02-09T13:32:01.069Z,10.19
2019-02-09T13:35:04.946Z,10.25
2019-02-09T13:38:07.081Z,10.31
2019-02-09T13:41:09.202Z,10.42
2019-02-09T13:44:11.270Z,10.56
2019-02-09T13:47:13.251Z,10.64
2019-02-09T13:50:25.040Z,10.65
2019-02-09T13:53:28.402Z,10.73
2019-02-09T13:56:30.352Z,10.66
2019-02-09T13:59:32.248Z,10.63
2019-02-09T14:02:34.230Z,10.36
2019-02-09T14:05:36.241Z,10.17
2019-02-09T14:08:38.200Z,9.99
2019-02-09T14:11:40.053Z,9.83
2019-02-09T14:14:42.058Z,9.66
2019-02-09T14:17:44.038Z,9.50
2019-02-09T14:20:45.992Z,9.40
2019-02-09T14:23:47.888Z,9.32
2019-02-09T14:26:49.883Z,9.25
2019-02-09T14:29:51.811Z,9.16
2019-02-09T14:32:54.141Z,9.07
2019-02-09T14:35:55.999Z,8.95
2019-02-09T14:38:57.935Z,8.88
2019-02-09T14:41:59.865Z,8.84
2019-02-09T14:45:02.003Z,8.85
2019-02-09T14:48:03.981Z,8.80
2019-02-09T14:51:05.910Z,8.77
2019-02-09T14:54:07.912Z,8.71
2019-02-09T14:57:09.838Z,8.68
2019-02-09T15:00:17.689Z,8.64
2019-02-09T15:03:25.969Z,8.64
2019-02-09T15:06:23.595Z,8.54
2019-02-09T15:09:25.555Z,8.47
2019-02-09T15:12:27.482Z,8.42
2019-02-09T15:15:35.908Z,8.37
2019-02-09T15:18:37.890Z,8.34
2019-02-09T15:21:39.824Z,8.26
2019-02-09T15:24:41.755Z,8.19
2019-02-09T15:27:43.667Z,8.09
2019-02-09T15:30:46.655Z,8.01
2019-02-09T15:33:48.632Z,7.92
2019-02-09T15:36:50.541Z,7.83
2019-02-09T15:39:52.467Z,7.68
2019-02-09T15:42:54.350Z,7.57
2019-02-09T15:45:56.292Z,7.41
2019-02-09T15:48:58.206Z,7.30
2019-02-09T15:52:00.140Z,7.16
2019-02-09T15:55:04.693Z,7.09
2019-02-09T15:58:06.662Z,7.01
2019-02-09T16:01:08.545Z,6.89
2019-02-09T16:04:17.696Z,6.75
2019-02-09T16:07:16.021Z,6.68
2019-02-09T16:10:20.505Z,6.64
2019-02-09T16:13:22.413Z,6.56
2019-02-09T16:16:24.366Z,6.43
2019-02-09T16:19:26.389Z,6.25
2019-02-09T16:22:28.324Z,6.10
2019-02-09T16:25:30.467Z,5.95
2019-02-09T16:28:32.330Z,5.82
2019-02-09T16:31:35.976Z,5.80
2019-02-09T16:34:38.118Z,5.79
2019-02-09T16:37:40.045Z,5.80
2019-02-09T16:40:41.911Z,5.81
2019-02-09T16:43:43.820Z,5.82
2019-02-09T16:46:45.810Z,5.81
2019-02-09T16:49:49.547Z,5.80
2019-02-09T16:52:52.774Z,5.78
2019-02-09T16:55:55.094Z,5.82
2019-02-09T16:58:57.060Z,5.84
2019-02-09T17:01:59.102Z,5.84
2019-02-09T17:05:01.033Z,5.83
2019-02-09T17:08:05.287Z,5.84
2019-02-09T17:11:07.831Z,5.86
2019-02-09T17:14:09.816Z,5.86
2019-02-09T17:17:11.775Z,5.87
2019-02-09T17:20:14.700Z,5.95
2019-02-09T17:23:16.596Z,6.02
2019-02-09T17:26:19.822Z,6.02
2019-02-09T17:29:21.860Z,6.03
2019-02-09T17:32:23.858Z,6.10
2019-02-09T17:35:26.998Z,6.14
2019-02-09T17:38:31.098Z,6.11
2019-02-09T17:41:34.906Z,6.06
2019-02-09T17:44:38.987Z,6.07
2019-02-09T17:47:41.000Z,6.01
2019-02-09T17:50:42.920Z,6.00
2019-02-09T17:53:44.960Z,5.92
2019-02-09T17:56:46.933Z,5.89
2019-02-09T17:59:48.935Z,5.86
2019-02-09T18:02:50.788Z,5.84
2019-02-09T18:05:52.792Z,5.86
2019-02-09T18:08:55.873Z,5.87
2019-02-09T18:11:57.842Z,5.90
2019-02-09T18:15:01.606Z,5.93
2019-02-09T18:18:04.581Z,5.99
2019-02-09T18:21:08.352Z,6.03
2019-02-09T18:24:10.282Z,6.05
2019-02-09T18:27:12.158Z,6.04
2019-02-09T18:30:26.221Z,6.02
2019-02-09T18:33:31.044Z,6.05
2019-02-09T18:36:33.033Z,6.04
2019-02-09T18:39:34.885Z,6.02
2019-02-09T18:42:36.879Z,6.04
2019-02-09T18:45:39.128Z,6.05
2019-02-09T18:48:41.470Z,6.01
2019-02-09T18:51:43.393Z,6.06
2019-02-09T18:54:45.350Z,6.14
2019-02-09T18:57:48.703Z,6.07
2019-02-09T19:00:50.842Z,5.99
2019-02-09T19:03:53.163Z,5.96
2019-02-09T19:06:55.058Z,5.98
2019-02-09T19:09:58.165Z,5.98
2019-02-09T19:13:00.152Z,5.98
2019-02-09T19:16:02.033Z,5.95
2019-02-09T19:19:05.122Z,5.87
2019-02-09T19:22:07.205Z,5.71
2019-02-09T19:25:13.085Z,5.75
2019-02-09T19:28:15.119Z,5.87
2019-02-09T19:31:23.116Z,5.99
2019-02-09T19:34:25.046Z,6.12
2019-02-09T19:37:26.953Z,6.17
2019-02-09T19:40:28.949Z,6.24
2019-02-09T19:43:33.928Z,6.23
2019-02-09T19:46:37.404Z,6.14
2019-02-09T19:49:39.724Z,6.08
2019-02-09T19:52:42.752Z,5.98
2019-02-09T19:55:44.671Z,5.92
2019-02-09T19:58:46.924Z,5.88
2019-02-09T20:01:49.258Z,5.90
2019-02-09T20:04:51.639Z,5.94
2019-02-09T20:07:55.549Z,5.92
2019-02-09T20:10:57.677Z,5.92
2019-02-09T20:13:59.622Z,5.96
2019-02-09T20:17:01.996Z,6.03
2019-02-09T20:20:09.758Z,6.08
2019-02-09T20:23:12.429Z,6.12
2019-02-09T20:26:16.139Z,6.13
2019-02-09T20:29:18.168Z,6.06
2019-02-09T20:32:20.412Z,6.02
2019-02-09T20:35:27.870Z,5.93
2019-02-09T20:38:28.108Z,5.88
2019-02-09T20:41:31.557Z,5.89
2019-02-09T20:44:35.121Z,5.94
2019-02-09T20:47:39.381Z,5.94
2019-02-09T20:50:42.699Z,5.97
2019-02-09T20:53:44.659Z,5.98
2019-02-09T20:56:46.578Z,6.02
2019-02-09T20:59:48.841Z,6.02
2019-02-09T21:02:51.454Z,5.98
2019-02-09T21:05:54.919Z,5.98
2019-02-09T21:08:58.083Z,5.95
2019-02-09T21:12:00.044Z,5.87
2019-02-09T21:15:01.955Z,5.79
2019-02-09T21:18:06.363Z,5.74
2019-02-09T21:21:08.311Z,5.75
2019-02-09T21:24:10.833Z,5.75
2019-02-09T21:27:14.258Z,5.69
2019-02-09T21:30:20.822Z,5.59
2019-02-09T21:33:22.863Z,5.53
2019-02-09T21:36:25.207Z,5.40
2019-02-09T21:39:33.892Z,5.30
2019-02-09T21:42:33.502Z,5.17
2019-02-09T21:45:44.582Z,5.08
2019-02-09T21:48:41.122Z,5.06
2019-02-09T21:51:43.414Z,4.97
2019-02-09T21:54:45.371Z,4.94
2019-02-09T21:57:49.167Z,4.89
2019-02-09T22:00:55.674Z,4.85
2019-02-09T22:03:58.959Z,4.84
2019-02-09T22:07:00.908Z,4.82
2019-02-09T22:10:06.507Z,4.82
2019-02-09T22:13:08.441Z,4.84
2019-02-09T22:16:11.483Z,4.87
2019-02-09T22:19:13.444Z,4.89
2019-02-09T22:22:15.422Z,4.90
2019-02-09T22:25:25.711Z,4.92
2019-02-09T22:28:27.644Z,4.95
2019-02-09T22:31:29.570Z,4.96
2019-02-09T22:34:31.894Z,4.95
2019-02-09T22:37:33.926Z,4.96
2019-02-09T22:40:40.463Z,5.00
2019-02-09T22:43:42.370Z,5.02
2019-02-09T22:46:44.345Z,5.02
2019-02-09T22:49:46.246Z,4.96
2019-02-09T22:52:48.327Z,4.97
2019-02-09T22:55:50.189Z,4.97
2019-02-09T22:58:52.101Z,5.01
2019-02-09T23:01:54.067Z,4.97
2019-02-09T23:04:56.294Z,4.93
2019-02-09T23:07:58.242Z,4.85
2019-02-09T23:11:00.186Z,4.78
2019-02-09T23:14:02.112Z,4.72
2019-02-09T23:17:03.988Z,4.71
2019-02-09T23:20:07.418Z,4.74
2019-02-09T23:23:09.392Z,4.78
2019-02-09T23:26:12.254Z,4.83
2019-02-09T23:29:14.136Z,4.85
2019-02-09T23:32:16.052Z,4.82
2019-02-09T23:35:17.938Z,4.83
2019-02-09T23:38:19.936Z,4.86
2019-02-09T23:41:21.877Z,4.88
2019-02-09T23:44:23.799Z,4.87
2019-02-09T23:47:25.751Z,4.82
2019-02-09T23:50:27.743Z,4.80
2019-02-09T23:53:29.729Z,4.79
2019-02-09T23:56:31.783Z,4.73
2019-02-09T23:59:33.638Z,4.71
